sensor_id;sensor_type;location;lat;lon;timestamp;P1;durP1;ratioP1;P2;durP2;ratioP2
24407;SDS011;12542;50.924;4.516;2024-02-21T00:01:02;22.55;;;9.63;;
24407;SDS011;12542;50.924;4.516;2024-02-21T00:03:29;30.55;;;9.65;;
24407;SDS011;12542;50.924;4.516;2024-02-21T00:05:57;28.25;;;9.05;;
24407;SDS011;12542;50.924;4.516;2024-02-21T00:08:23;24.83;;;9.10;;
24407;SDS011;12542;50.924;4.516;2024-02-21T00:10:48;29.85;;;9.20;;
24407;SDS011;12542;50.924;4.516;2024-02-21T00:13:14;25.08;;;8.82;;
24407;SDS011;12542;50.924;4.516;2024-02-21T00:15:40;24.90;;;8.45;;
24407;SDS011;12542;50.924;4.516;2024-02-21T00:18:06;20.00;;;8.18;;
24407;SDS011;12542;50.924;4.516;2024-02-21T00:20:31;24.98;;;8.05;;
24407;SDS011;12542;50.924;4.516;2024-02-21T00:22:57;29.30;;;8.02;;
24407;SDS011;12542;50.924;4.516;2024-02-21T00:25:23;22.38;;;7.93;;
24407;SDS011;12542;50.924;4.516;2024-02-21T00:27:48;24.70;;;8.43;;
24407;SDS011;12542;50.924;4.516;2024-02-21T00:30:14;21.05;;;6.90;;
24407;SDS011;12542;50.924;4.516;2024-02-21T00:32:40;20.08;;;6.63;;
24407;SDS011;12542;50.924;4.516;2024-02-21T00:35:06;14.10;;;5.40;;
24407;SDS011;12542;50.924;4.516;2024-02-21T00:37:31;15.98;;;6.47;;
24407;SDS011;12542;50.924;4.516;2024-02-21T00:39:57;14.95;;;5.82;;
24407;SDS011;12542;50.924;4.516;2024-02-21T00:42:23;14.70;;;6.78;;
24407;SDS011;12542;50.924;4.516;2024-02-21T00:44:48;20.38;;;6.00;;
24407;SDS011;12542;50.924;4.516;2024-02-21T00:47:14;24.27;;;6.75;;
24407;SDS011;12542;50.924;4.516;2024-02-21T00:49:40;24.80;;;7.60;;
24407;SDS011;12542;50.924;4.516;2024-02-21T00:52:06;18.80;;;6.95;;
24407;SDS011;12542;50.924;4.516;2024-02-21T00:54:32;14.70;;;5.30;;
24407;SDS011;12542;50.924;4.516;2024-02-21T00:56:57;17.15;;;6.28;;
24407;SDS011;12542;50.924;4.516;2024-02-21T00:59:23;16.25;;;5.78;;
24407;SDS011;12542;50.924;4.516;2024-02-21T01:01:49;14.32;;;5.07;;
24407;SDS011;12542;50.924;4.516;2024-02-21T01:04:14;18.95;;;6.13;;
24407;SDS011;12542;50.924;4.516;2024-02-21T01:06:40;21.55;;;5.93;;
24407;SDS011;12542;50.924;4.516;2024-02-21T01:09:09;14.13;;;5.13;;
24407;SDS011;12542;50.924;4.516;2024-02-21T01:11:35;19.60;;;5.95;;
24407;SDS011;12542;50.924;4.516;2024-02-21T01:14:01;21.45;;;6.63;;
24407;SDS011;12542;50.924;4.516;2024-02-21T01:16:29;14.90;;;5.47;;
24407;SDS011;12542;50.924;4.516;2024-02-21T01:18:54;18.10;;;5.45;;
24407;SDS011;12542;50.924;4.516;2024-02-21T01:21:23;17.17;;;5.22;;
24407;SDS011;12542;50.924;4.516;2024-02-21T01:23:48;16.85;;;5.60;;
24407;SDS011;12542;50.924;4.516;2024-02-21T01:26:14;17.63;;;5.15;;
24407;SDS011;12542;50.924;4.516;2024-02-21T01:28:40;14.75;;;5.43;;
24407;SDS011;12542;50.924;4.516;2024-02-21T01:31:06;12.82;;;5.70;;
24407;SDS011;12542;50.924;4.516;2024-02-21T01:33:32;17.48;;;5.55;;
24407;SDS011;12542;50.924;4.516;2024-02-21T01:36:03;15.63;;;5.75;;
24407;SDS011;12542;50.924;4.516;2024-02-21T01:38:31;14.88;;;5.88;;
24407;SDS011;12542;50.924;4.516;2024-02-21T01:40:57;20.20;;;7.28;;
24407;SDS011;12542;50.924;4.516;2024-02-21T01:43:23;17.67;;;6.28;;
24407;SDS011;12542;50.924;4.516;2024-02-21T01:45:53;17.92;;;7.35;;
24407;SDS011;12542;50.924;4.516;2024-02-21T01:48:21;19.35;;;6.72;;
24407;SDS011;12542;50.924;4.516;2024-02-21T01:50:51;15.13;;;6.13;;
24407;SDS011;12542;50.924;4.516;2024-02-21T01:53:35;19.85;;;7.88;;
24407;SDS011;12542;50.924;4.516;2024-02-21T01:56:03;16.88;;;7.22;;
24407;SDS011;12542;50.924;4.516;2024-02-21T01:58:30;18.83;;;7.50;;
24407;SDS011;12542;50.924;4.516;2024-02-21T02:00:58;21.88;;;9.57;;
24407;SDS011;12542;50.924;4.516;2024-02-21T02:03:24;30.77;;;8.88;;
24407;SDS011;12542;50.924;4.516;2024-02-21T02:05:50;22.05;;;7.60;;
24407;SDS011;12542;50.924;4.516;2024-02-21T02:08:16;25.55;;;8.80;;
24407;SDS011;12542;50.924;4.516;2024-02-21T02:10:44;25.40;;;8.73;;
24407;SDS011;12542;50.924;4.516;2024-02-21T02:13:10;21.85;;;8.32;;
24407;SDS011;12542;50.924;4.516;2024-02-21T02:15:37;20.08;;;9.02;;
24407;SDS011;12542;50.924;4.516;2024-02-21T02:18:07;24.80;;;9.15;;
24407;SDS011;12542;50.924;4.516;2024-02-21T02:20:32;24.27;;;8.85;;
24407;SDS011;12542;50.924;4.516;2024-02-21T02:22:59;23.42;;;9.18;;
24407;SDS011;12542;50.924;4.516;2024-02-21T02:25:26;22.33;;;9.30;;
24407;SDS011;12542;50.924;4.516;2024-02-21T02:27:51;22.88;;;8.57;;
24407;SDS011;12542;50.924;4.516;2024-02-21T02:30:19;26.90;;;9.43;;
24407;SDS011;12542;50.924;4.516;2024-02-21T02:32:45;23.38;;;9.15;;
24407;SDS011;12542;50.924;4.516;2024-02-21T02:35:13;25.65;;;8.63;;
24407;SDS011;12542;50.924;4.516;2024-02-21T02:37:39;26.40;;;9.85;;
24407;SDS011;12542;50.924;4.516;2024-02-21T02:40:06;20.55;;;8.57;;
24407;SDS011;12542;50.924;4.516;2024-02-21T02:42:32;24.15;;;8.65;;
24407;SDS011;12542;50.924;4.516;2024-02-21T02:44:57;23.73;;;8.68;;
24407;SDS011;12542;50.924;4.516;2024-02-21T02:47:25;24.83;;;8.93;;
24407;SDS011;12542;50.924;4.516;2024-02-21T02:49:51;21.20;;;8.75;;
24407;SDS011;12542;50.924;4.516;2024-02-21T02:52:17;22.75;;;8.27;;
24407;SDS011;12542;50.924;4.516;2024-02-21T02:54:43;20.73;;;7.68;;
24407;SDS011;12542;50.924;4.516;2024-02-21T02:57:10;27.52;;;8.32;;
24407;SDS011;12542;50.924;4.516;2024-02-21T02:59:35;23.63;;;7.47;;
24407;SDS011;12542;50.924;4.516;2024-02-21T03:02:01;19.67;;;7.20;;
24407;SDS011;12542;50.924;4.516;2024-02-21T03:04:29;19.90;;;7.35;;
24407;SDS011;12542;50.924;4.516;2024-02-21T03:06:54;22.55;;;7.18;;
24407;SDS011;12542;50.924;4.516;2024-02-21T03:09:20;23.92;;;6.35;;
24407;SDS011;12542;50.924;4.516;2024-02-21T03:11:46;20.25;;;7.60;;
24407;SDS011;12542;50.924;4.516;2024-02-21T03:14:12;22.38;;;6.82;;
24407;SDS011;12542;50.924;4.516;2024-02-21T03:16:38;14.63;;;7.05;;
24407;SDS011;12542;50.924;4.516;2024-02-21T03:19:03;17.42;;;6.68;;
24407;SDS011;12542;50.924;4.516;2024-02-21T03:21:29;15.32;;;6.50;;
24407;SDS011;12542;50.924;4.516;2024-02-21T03:23:55;14.85;;;6.28;;
24407;SDS011;12542;50.924;4.516;2024-02-21T03:26:20;17.52;;;6.50;;
24407;SDS011;12542;50.924;4.516;2024-02-21T03:28:46;16.00;;;6.90;;
24407;SDS011;12542;50.924;4.516;2024-02-21T03:31:12;20.50;;;6.80;;
24407;SDS011;12542;50.924;4.516;2024-02-21T03:33:42;21.05;;;7.20;;
24407;SDS011;12542;50.924;4.516;2024-02-21T03:36:13;17.70;;;7.32;;
24407;SDS011;12542;50.924;4.516;2024-02-21T03:38:40;16.60;;;6.22;;
24407;SDS011;12542;50.924;4.516;2024-02-21T03:41:05;15.85;;;6.65;;
24407;SDS011;12542;50.924;4.516;2024-02-21T03:43:31;13.48;;;6.68;;
24407;SDS011;12542;50.924;4.516;2024-02-21T03:45:57;14.98;;;6.18;;
24407;SDS011;12542;50.924;4.516;2024-02-21T03:48:22;16.10;;;6.55;;
24407;SDS011;12542;50.924;4.516;2024-02-21T03:50:48;20.88;;;7.50;;
24407;SDS011;12542;50.924;4.516;2024-02-21T03:53:14;14.13;;;6.20;;
24407;SDS011;12542;50.924;4.516;2024-02-21T03:55:39;16.90;;;7.05;;
24407;SDS011;12542;50.924;4.516;2024-02-21T03:58:05;15.27;;;7.28;;
24407;SDS011;12542;50.924;4.516;2024-02-21T04:00:31;16.90;;;6.95;;
24407;SDS011;12542;50.924;4.516;2024-02-21T04:02:56;20.35;;;6.95;;
24407;SDS011;12542;50.924;4.516;2024-02-21T04:05:22;25.73;;;7.35;;
24407;SDS011;12542;50.924;4.516;2024-02-21T04:07:48;16.02;;;7.38;;
24407;SDS011;12542;50.924;4.516;2024-02-21T04:10:13;17.73;;;7.60;;
24407;SDS011;12542;50.924;4.516;2024-02-21T04:12:39;18.98;;;8.25;;
24407;SDS011;12542;50.924;4.516;2024-02-21T04:15:05;19.40;;;8.30;;
24407;SDS011;12542;50.924;4.516;2024-02-21T04:17:31;23.15;;;9.60;;
24407;SDS011;12542;50.924;4.516;2024-02-21T04:20:01;19.63;;;7.28;;
24407;SDS011;12542;50.924;4.516;2024-02-21T04:22:33;26.88;;;9.32;;
24407;SDS011;12542;50.924;4.516;2024-02-21T04:24:59;20.88;;;8.13;;
24407;SDS011;12542;50.924;4.516;2024-02-21T04:27:26;24.77;;;8.70;;
24407;SDS011;12542;50.924;4.516;2024-02-21T04:29:51;25.13;;;8.48;;
24407;SDS011;12542;50.924;4.516;2024-02-21T04:32:18;26.75;;;9.20;;
24407;SDS011;12542;50.924;4.516;2024-02-21T04:34:44;26.70;;;9.25;;
24407;SDS011;12542;50.924;4.516;2024-02-21T04:37:09;22.15;;;8.18;;
24407;SDS011;12542;50.924;4.516;2024-02-21T04:39:35;18.75;;;8.18;;
24407;SDS011;12542;50.924;4.516;2024-02-21T04:42:01;21.50;;;9.48;;
24407;SDS011;12542;50.924;4.516;2024-02-21T04:44:26;20.00;;;8.85;;
24407;SDS011;12542;50.924;4.516;2024-02-21T04:46:52;19.30;;;7.70;;
24407;SDS011;12542;50.924;4.516;2024-02-21T04:49:18;20.48;;;7.97;;
24407;SDS011;12542;50.924;4.516;2024-02-21T04:51:44;16.83;;;7.07;;
24407;SDS011;12542;50.924;4.516;2024-02-21T04:54:10;16.08;;;7.53;;
24407;SDS011;12542;50.924;4.516;2024-02-21T04:56:36;19.17;;;7.95;;
24407;SDS011;12542;50.924;4.516;2024-02-21T04:59:02;18.13;;;8.02;;
24407;SDS011;12542;50.924;4.516;2024-02-21T05:01:28;15.43;;;7.70;;
24407;SDS011;12542;50.924;4.516;2024-02-21T05:03:53;22.05;;;8.55;;
24407;SDS011;12542;50.924;4.516;2024-02-21T05:06:19;20.00;;;8.30;;
24407;SDS011;12542;50.924;4.516;2024-02-21T05:08:48;16.27;;;8.02;;
24407;SDS011;12542;50.924;4.516;2024-02-21T05:11:14;12.40;;;7.15;;
24407;SDS011;12542;50.924;4.516;2024-02-21T05:13:39;18.98;;;7.65;;
24407;SDS011;12542;50.924;4.516;2024-02-21T05:16:05;22.23;;;7.70;;
24407;SDS011;12542;50.924;4.516;2024-02-21T05:18:32;21.50;;;7.32;;
24407;SDS011;12542;50.924;4.516;2024-02-21T05:20:58;19.92;;;6.95;;
24407;SDS011;12542;50.924;4.516;2024-02-21T05:23:24;20.65;;;7.72;;
24407;SDS011;12542;50.924;4.516;2024-02-21T05:25:50;14.93;;;6.68;;
24407;SDS011;12542;50.924;4.516;2024-02-21T05:28:16;19.50;;;6.45;;
24407;SDS011;12542;50.924;4.516;2024-02-21T05:30:42;20.23;;;6.85;;
24407;SDS011;12542;50.924;4.516;2024-02-21T05:33:08;13.65;;;7.03;;
24407;SDS011;12542;50.924;4.516;2024-02-21T05:35:34;15.30;;;6.43;;
24407;SDS011;12542;50.924;4.516;2024-02-21T05:38:01;12.38;;;6.43;;
24407;SDS011;12542;50.924;4.516;2024-02-21T05:40:29;16.15;;;6.65;;
24407;SDS011;12542;50.924;4.516;2024-02-21T05:42:57;13.68;;;6.60;;
24407;SDS011;12542;50.924;4.516;2024-02-21T05:45:23;19.30;;;7.70;;
24407;SDS011;12542;50.924;4.516;2024-02-21T05:47:49;15.57;;;7.22;;
24407;SDS011;12542;50.924;4.516;2024-02-21T05:50:15;15.82;;;7.25;;
24407;SDS011;12542;50.924;4.516;2024-02-21T05:52:40;24.95;;;8.25;;
24407;SDS011;12542;50.924;4.516;2024-02-21T05:55:06;19.48;;;8.23;;
24407;SDS011;12542;50.924;4.516;2024-02-21T05:57:34;17.50;;;7.28;;
24407;SDS011;12542;50.924;4.516;2024-02-21T06:00:00;16.95;;;6.82;;
24407;SDS011;12542;50.924;4.516;2024-02-21T06:02:28;14.43;;;6.18;;
24407;SDS011;12542;50.924;4.516;2024-02-21T06:04:53;14.73;;;6.47;;
24407;SDS011;12542;50.924;4.516;2024-02-21T06:07:19;14.75;;;5.53;;
24407;SDS011;12542;50.924;4.516;2024-02-21T06:09:45;12.95;;;5.47;;
24407;SDS011;12542;50.924;4.516;2024-02-21T06:12:10;19.40;;;5.78;;
24407;SDS011;12542;50.924;4.516;2024-02-21T06:14:36;13.48;;;6.20;;
24407;SDS011;12542;50.924;4.516;2024-02-21T06:17:02;14.50;;;5.63;;
24407;SDS011;12542;50.924;4.516;2024-02-21T06:19:28;12.75;;;5.68;;
24407;SDS011;12542;50.924;4.516;2024-02-21T06:21:53;14.48;;;5.93;;
24407;SDS011;12542;50.924;4.516;2024-02-21T06:24:19;12.07;;;5.50;;
24407;SDS011;12542;50.924;4.516;2024-02-21T06:26:45;12.55;;;5.22;;
24407;SDS011;12542;50.924;4.516;2024-02-21T06:29:11;15.00;;;5.22;;
24407;SDS011;12542;50.924;4.516;2024-02-21T06:31:38;16.02;;;5.43;;
24407;SDS011;12542;50.924;4.516;2024-02-21T06:34:05;16.75;;;5.40;;
24407;SDS011;12542;50.924;4.516;2024-02-21T06:36:31;13.65;;;4.43;;
24407;SDS011;12542;50.924;4.516;2024-02-21T06:38:57;10.63;;;4.95;;
24407;SDS011;12542;50.924;4.516;2024-02-21T06:41:23;15.00;;;4.95;;
24407;SDS011;12542;50.924;4.516;2024-02-21T06:43:49;15.05;;;6.53;;
24407;SDS011;12542;50.924;4.516;2024-02-21T06:46:22;17.60;;;7.75;;
24407;SDS011;12542;50.924;4.516;2024-02-21T06:48:52;9.20;;;4.93;;
24407;SDS011;12542;50.924;4.516;2024-02-21T06:51:18;11.02;;;4.70;;
24407;SDS011;12542;50.924;4.516;2024-02-21T06:53:43;11.45;;;4.80;;
24407;SDS011;12542;50.924;4.516;2024-02-21T06:56:10;14.93;;;4.70;;
24407;SDS011;12542;50.924;4.516;2024-02-21T06:58:35;10.02;;;4.47;;
24407;SDS011;12542;50.924;4.516;2024-02-21T07:01:01;10.63;;;5.22;;
24407;SDS011;12542;50.924;4.516;2024-02-21T07:03:27;14.88;;;5.60;;
24407;SDS011;12542;50.924;4.516;2024-02-21T07:05:53;15.45;;;5.30;;
24407;SDS011;12542;50.924;4.516;2024-02-21T07:08:18;10.23;;;5.10;;
24407;SDS011;12542;50.924;4.516;2024-02-21T07:10:44;10.38;;;4.90;;
24407;SDS011;12542;50.924;4.516;2024-02-21T07:13:10;10.70;;;5.28;;
24407;SDS011;12542;50.924;4.516;2024-02-21T07:15:35;12.95;;;5.22;;
24407;SDS011;12542;50.924;4.516;2024-02-21T07:18:03;9.30;;;5.20;;
24407;SDS011;12542;50.924;4.516;2024-02-21T07:20:28;10.82;;;5.85;;
24407;SDS011;12542;50.924;4.516;2024-02-21T07:22:54;12.00;;;6.30;;
24407;SDS011;12542;50.924;4.516;2024-02-21T07:25:20;13.35;;;6.70;;
24407;SDS011;12542;50.924;4.516;2024-02-21T07:27:46;13.98;;;5.75;;
24407;SDS011;12542;50.924;4.516;2024-02-21T07:30:11;14.63;;;6.95;;
24407;SDS011;12542;50.924;4.516;2024-02-21T07:32:38;15.77;;;7.85;;
24407;SDS011;12542;50.924;4.516;2024-02-21T07:35:04;14.02;;;7.20;;
24407;SDS011;12542;50.924;4.516;2024-02-21T07:37:30;12.68;;;7.00;;
24407;SDS011;12542;50.924;4.516;2024-02-21T07:39:56;11.80;;;6.60;;
24407;SDS011;12542;50.924;4.516;2024-02-21T07:42:22;8.52;;;5.18;;
24407;SDS011;12542;50.924;4.516;2024-02-21T07:44:47;12.35;;;6.70;;
24407;SDS011;12542;50.924;4.516;2024-02-21T07:47:13;13.32;;;5.65;;
24407;SDS011;12542;50.924;4.516;2024-02-21T07:49:45;12.05;;;6.10;;
24407;SDS011;12542;50.924;4.516;2024-02-21T07:52:12;14.65;;;6.25;;
24407;SDS011;12542;50.924;4.516;2024-02-21T07:54:38;22.08;;;5.60;;
24407;SDS011;12542;50.924;4.516;2024-02-21T07:57:04;12.70;;;5.68;;
24407;SDS011;12542;50.924;4.516;2024-02-21T07:59:30;21.15;;;5.80;;
24407;SDS011;12542;50.924;4.516;2024-02-21T08:01:56;19.75;;;6.40;;
24407;SDS011;12542;50.924;4.516;2024-02-21T08:04:23;15.32;;;6.32;;
24407;SDS011;12542;50.924;4.516;2024-02-21T08:06:52;12.13;;;6.30;;
24407;SDS011;12542;50.924;4.516;2024-02-21T08:09:19;12.32;;;6.15;;
24407;SDS011;12542;50.924;4.516;2024-02-21T08:11:44;12.32;;;5.95;;
24407;SDS011;12542;50.924;4.516;2024-02-21T08:14:10;15.18;;;5.45;;
24407;SDS011;12542;50.924;4.516;2024-02-21T08:16:41;14.27;;;5.40;;
24407;SDS011;12542;50.924;4.516;2024-02-21T08:19:07;11.55;;;5.15;;
24407;SDS011;12542;50.924;4.516;2024-02-21T08:21:33;42.03;;;8.15;;
24407;SDS011;12542;50.924;4.516;2024-02-21T08:23:59;22.58;;;6.22;;
24407;SDS011;12542;50.924;4.516;2024-02-21T08:26:24;12.77;;;5.93;;
24407;SDS011;12542;50.924;4.516;2024-02-21T08:28:53;12.60;;;5.25;;
24407;SDS011;12542;50.924;4.516;2024-02-21T08:31:19;23.60;;;7.05;;
24407;SDS011;12542;50.924;4.516;2024-02-21T08:33:45;18.55;;;6.55;;
24407;SDS011;12542;50.924;4.516;2024-02-21T08:36:17;12.13;;;5.65;;
24407;SDS011;12542;50.924;4.516;2024-02-21T08:38:44;16.58;;;5.60;;
24407;SDS011;12542;50.924;4.516;2024-02-21T08:41:10;11.48;;;5.20;;
24407;SDS011;12542;50.924;4.516;2024-02-21T08:43:36;11.60;;;5.70;;
24407;SDS011;12542;50.924;4.516;2024-02-21T08:46:02;12.52;;;5.60;;
24407;SDS011;12542;50.924;4.516;2024-02-21T08:48:28;10.93;;;5.65;;
24407;SDS011;12542;50.924;4.516;2024-02-21T08:50:53;10.48;;;4.25;;
24407;SDS011;12542;50.924;4.516;2024-02-21T08:53:19;12.38;;;4.70;;
24407;SDS011;12542;50.924;4.516;2024-02-21T08:55:45;8.90;;;4.78;;
24407;SDS011;12542;50.924;4.516;2024-02-21T08:58:11;14.15;;;5.72;;
24407;SDS011;12542;50.924;4.516;2024-02-21T09:00:37;12.20;;;4.40;;
24407;SDS011;12542;50.924;4.516;2024-02-21T09:03:03;13.73;;;5.03;;
24407;SDS011;12542;50.924;4.516;2024-02-21T09:05:29;13.45;;;5.57;;
24407;SDS011;12542;50.924;4.516;2024-02-21T09:07:54;13.88;;;4.55;;
24407;SDS011;12542;50.924;4.516;2024-02-21T09:10:20;8.82;;;3.05;;
24407;SDS011;12542;50.924;4.516;2024-02-21T09:12:49;10.98;;;4.40;;
24407;SDS011;12542;50.924;4.516;2024-02-21T09:15:14;10.88;;;3.85;;
24407;SDS011;12542;50.924;4.516;2024-02-21T09:17:40;8.93;;;3.20;;
24407;SDS011;12542;50.924;4.516;2024-02-21T09:20:06;7.93;;;3.55;;
24407;SDS011;12542;50.924;4.516;2024-02-21T09:22:32;9.77;;;4.25;;
24407;SDS011;12542;50.924;4.516;2024-02-21T09:24:59;15.30;;;4.03;;
24407;SDS011;12542;50.924;4.516;2024-02-21T09:27:25;10.50;;;3.80;;
24407;SDS011;12542;50.924;4.516;2024-02-21T09:29:51;9.98;;;4.40;;
24407;SDS011;12542;50.924;4.516;2024-02-21T09:32:18;7.32;;;3.25;;
24407;SDS011;12542;50.924;4.516;2024-02-21T09:34:44;10.32;;;3.50;;
24407;SDS011;12542;50.924;4.516;2024-02-21T09:37:10;10.70;;;3.90;;
24407;SDS011;12542;50.924;4.516;2024-02-21T09:39:38;12.23;;;3.60;;
24407;SDS011;12542;50.924;4.516;2024-02-21T09:42:05;7.72;;;4.18;;
24407;SDS011;12542;50.924;4.516;2024-02-21T09:44:33;10.43;;;4.07;;
24407;SDS011;12542;50.924;4.516;2024-02-21T09:47:03;9.73;;;3.80;;
24407;SDS011;12542;50.924;4.516;2024-02-21T09:49:35;14.93;;;3.58;;
24407;SDS011;12542;50.924;4.516;2024-02-21T09:52:05;7.47;;;3.58;;
24407;SDS011;12542;50.924;4.516;2024-02-21T09:54:34;7.95;;;3.28;;
24407;SDS011;12542;50.924;4.516;2024-02-21T09:57:01;8.73;;;3.45;;
24407;SDS011;12542;50.924;4.516;2024-02-21T09:59:31;10.45;;;3.65;;
24407;SDS011;12542;50.924;4.516;2024-02-21T10:01:58;9.07;;;3.85;;
24407;SDS011;12542;50.924;4.516;2024-02-21T10:04:28;9.77;;;3.75;;
24407;SDS011;12542;50.924;4.516;2024-02-21T10:06:54;11.63;;;3.22;;
24407;SDS011;12542;50.924;4.516;2024-02-21T10:09:24;12.93;;;3.55;;
24407;SDS011;12542;50.924;4.516;2024-02-21T10:11:53;9.75;;;3.80;;
24407;SDS011;12542;50.924;4.516;2024-02-21T10:14:20;8.27;;;3.10;;
24407;SDS011;12542;50.924;4.516;2024-02-21T10:16:47;7.93;;;3.45;;
24407;SDS011;12542;50.924;4.516;2024-02-21T10:19:20;8.73;;;3.50;;
24407;SDS011;12542;50.924;4.516;2024-02-21T10:21:59;8.00;;;3.50;;
24407;SDS011;12542;50.924;4.516;2024-02-21T10:24:33;10.05;;;3.75;;
24407;SDS011;12542;50.924;4.516;2024-02-21T10:27:05;12.30;;;3.63;;
24407;SDS011;12542;50.924;4.516;2024-02-21T10:29:38;10.57;;;3.30;;
24407;SDS011;12542;50.924;4.516;2024-02-21T10:32:05;13.82;;;3.90;;
24407;SDS011;12542;50.924;4.516;2024-02-21T10:34:39;17.33;;;4.07;;
24407;SDS011;12542;50.924;4.516;2024-02-21T10:37:07;22.90;;;4.95;;
24407;SDS011;12542;50.924;4.516;2024-02-21T10:39:34;12.95;;;3.22;;
24407;SDS011;12542;50.924;4.516;2024-02-21T10:42:02;10.40;;;3.88;;
24407;SDS011;12542;50.924;4.516;2024-02-21T10:44:36;12.73;;;3.28;;
24407;SDS011;12542;50.924;4.516;2024-02-21T10:47:05;9.82;;;2.83;;
24407;SDS011;12542;50.924;4.516;2024-02-21T10:49:34;11.77;;;2.70;;
24407;SDS011;12542;50.924;4.516;2024-02-21T10:55:03;10.60;;;3.47;;
24407;SDS011;12542;50.924;4.516;2024-02-21T10:57:34;11.23;;;2.88;;
24407;SDS011;12542;50.924;4.516;2024-02-21T11:00:03;9.18;;;3.22;;
24407;SDS011;12542;50.924;4.516;2024-02-21T11:02:33;8.93;;;3.28;;
24407;SDS011;12542;50.924;4.516;2024-02-21T11:05:02;8.38;;;3.28;;
24407;SDS011;12542;50.924;4.516;2024-02-21T11:07:29;14.45;;;3.60;;
24407;SDS011;12542;50.924;4.516;2024-02-21T11:09:57;8.45;;;2.95;;
24407;SDS011;12542;50.924;4.516;2024-02-21T11:12:25;10.05;;;2.60;;
24407;SDS011;12542;50.924;4.516;2024-02-21T11:14:52;8.20;;;2.35;;
24407;SDS011;12542;50.924;4.516;2024-02-21T11:17:29;8.98;;;2.63;;
24407;SDS011;12542;50.924;4.516;2024-02-21T11:19:55;9.27;;;3.05;;
24407;SDS011;12542;50.924;4.516;2024-02-21T11:22:20;3.95;;;2.03;;
24407;SDS011;12542;50.924;4.516;2024-02-21T11:24:49;9.38;;;2.20;;
24407;SDS011;12542;50.924;4.516;2024-02-21T11:27:16;9.85;;;2.60;;
24407;SDS011;12542;50.924;4.516;2024-02-21T11:29:54;10.80;;;3.17;;
24407;SDS011;12542;50.924;4.516;2024-02-21T11:32:21;8.00;;;2.50;;
24407;SDS011;12542;50.924;4.516;2024-02-21T11:37:27;15.88;;;2.78;;
24407;SDS011;12542;50.924;4.516;2024-02-21T11:39:57;8.90;;;2.53;;
24407;SDS011;12542;50.924;4.516;2024-02-21T11:42:25;6.70;;;2.17;;
24407;SDS011;12542;50.924;4.516;2024-02-21T11:44:51;8.27;;;2.17;;
24407;SDS011;12542;50.924;4.516;2024-02-21T11:47:18;7.85;;;2.13;;
24407;SDS011;12542;50.924;4.516;2024-02-21T11:49:44;6.15;;;2.22;;
24407;SDS011;12542;50.924;4.516;2024-02-21T11:52:11;5.53;;;2.00;;
24407;SDS011;12542;50.924;4.516;2024-02-21T11:54:40;7.05;;;2.50;;
24407;SDS011;12542;50.924;4.516;2024-02-21T11:57:06;10.15;;;2.17;;
24407;SDS011;12542;50.924;4.516;2024-02-21T11:59:32;11.38;;;2.42;;
24407;SDS011;12542;50.924;4.516;2024-02-21T12:01:59;6.78;;;2.63;;
24407;SDS011;12542;50.924;4.516;2024-02-21T12:04:25;10.07;;;2.20;;
24407;SDS011;12542;50.924;4.516;2024-02-21T12:06:55;11.38;;;2.63;;
24407;SDS011;12542;50.924;4.516;2024-02-21T12:09:22;8.27;;;2.67;;
24407;SDS011;12542;50.924;4.516;2024-02-21T12:12:04;5.93;;;2.67;;
24407;SDS011;12542;50.924;4.516;2024-02-21T12:14:31;8.35;;;2.80;;
24407;SDS011;12542;50.924;4.516;2024-02-21T12:16:58;31.23;;;4.85;;
24407;SDS011;12542;50.924;4.516;2024-02-21T12:19:25;25.92;;;4.35;;
24407;SDS011;12542;50.924;4.516;2024-02-21T12:21:53;13.05;;;3.03;;
24407;SDS011;12542;50.924;4.516;2024-02-21T12:24:26;6.57;;;2.70;;
24407;SDS011;12542;50.924;4.516;2024-02-21T12:26:54;8.77;;;3.08;;
24407;SDS011;12542;50.924;4.516;2024-02-21T12:29:21;15.75;;;4.05;;
24407;SDS011;12542;50.924;4.516;2024-02-21T12:31:49;12.57;;;3.45;;
24407;SDS011;12542;50.924;4.516;2024-02-21T12:34:15;29.85;;;5.30;;
24407;SDS011;12542;50.924;4.516;2024-02-21T12:36:42;40.85;;;5.97;;
24407;SDS011;12542;50.924;4.516;2024-02-21T12:39:09;25.35;;;5.75;;
24407;SDS011;12542;50.924;4.516;2024-02-21T12:41:35;10.65;;;2.95;;
24407;SDS011;12542;50.924;4.516;2024-02-21T12:44:06;9.60;;;3.03;;
24407;SDS011;12542;50.924;4.516;2024-02-21T12:46:35;13.25;;;3.75;;
24407;SDS011;12542;50.924;4.516;2024-02-21T12:49:03;6.10;;;3.10;;
24407;SDS011;12542;50.924;4.516;2024-02-21T12:51:32;6.72;;;2.85;;
24407;SDS011;12542;50.924;4.516;2024-02-21T12:53:58;22.40;;;5.90;;
24407;SDS011;12542;50.924;4.516;2024-02-21T12:56:24;36.53;;;6.93;;
24407;SDS011;12542;50.924;4.516;2024-02-21T12:58:52;34.83;;;6.28;;
24407;SDS011;12542;50.924;4.516;2024-02-21T13:01:18;19.40;;;3.88;;
24407;SDS011;12542;50.924;4.516;2024-02-21T13:03:43;17.05;;;4.07;;
24407;SDS011;12542;50.924;4.516;2024-02-21T13:06:09;5.97;;;2.47;;
24407;SDS011;12542;50.924;4.516;2024-02-21T13:08:38;9.82;;;3.60;;
24407;SDS011;12542;50.924;4.516;2024-02-21T13:11:05;13.35;;;3.97;;
24407;SDS011;12542;50.924;4.516;2024-02-21T13:13:30;7.97;;;3.15;;
24407;SDS011;12542;50.924;4.516;2024-02-21T13:15:57;29.73;;;5.20;;
24407;SDS011;12542;50.924;4.516;2024-02-21T13:18:25;10.43;;;3.15;;
24407;SDS011;12542;50.924;4.516;2024-02-21T13:20:51;8.48;;;2.38;;
24407;SDS011;12542;50.924;4.516;2024-02-21T13:23:17;8.23;;;3.30;;
24407;SDS011;12542;50.924;4.516;2024-02-21T13:25:43;11.15;;;2.83;;
24407;SDS011;12542;50.924;4.516;2024-02-21T13:28:12;10.57;;;3.15;;
24407;SDS011;12542;50.924;4.516;2024-02-21T13:30:38;5.93;;;2.15;;
24407;SDS011;12542;50.924;4.516;2024-02-21T13:33:05;8.68;;;2.85;;
24407;SDS011;12542;50.924;4.516;2024-02-21T13:35:31;7.13;;;2.78;;
24407;SDS011;12542;50.924;4.516;2024-02-21T13:37:57;12.90;;;3.35;;
24407;SDS011;12542;50.924;4.516;2024-02-21T13:40:23;9.10;;;3.30;;
24407;SDS011;12542;50.924;4.516;2024-02-21T13:42:50;7.45;;;2.80;;
24407;SDS011;12542;50.924;4.516;2024-02-21T13:45:16;6.63;;;2.92;;
24407;SDS011;12542;50.924;4.516;2024-02-21T13:47:42;7.80;;;3.00;;
24407;SDS011;12542;50.924;4.516;2024-02-21T13:50:08;9.38;;;2.95;;
24407;SDS011;12542;50.924;4.516;2024-02-21T13:52:37;7.65;;;3.10;;
24407;SDS011;12542;50.924;4.516;2024-02-21T13:55:05;7.88;;;3.30;;
24407;SDS011;12542;50.924;4.516;2024-02-21T13:57:34;9.35;;;3.00;;
24407;SDS011;12542;50.924;4.516;2024-02-21T14:00:03;10.57;;;3.00;;
24407;SDS011;12542;50.924;4.516;2024-02-21T14:02:30;10.15;;;2.92;;
24407;SDS011;12542;50.924;4.516;2024-02-21T14:04:56;8.70;;;3.10;;
24407;SDS011;12542;50.924;4.516;2024-02-21T14:07:22;7.28;;;3.45;;
24407;SDS011;12542;50.924;4.516;2024-02-21T14:09:48;8.02;;;3.22;;
24407;SDS011;12542;50.924;4.516;2024-02-21T14:12:13;7.88;;;3.33;;
24407;SDS011;12542;50.924;4.516;2024-02-21T14:14:41;7.97;;;3.10;;
24407;SDS011;12542;50.924;4.516;2024-02-21T14:17:08;9.85;;;3.50;;
24407;SDS011;12542;50.924;4.516;2024-02-21T14:19:34;7.25;;;2.97;;
24407;SDS011;12542;50.924;4.516;2024-02-21T14:21:59;6.70;;;3.28;;
24407;SDS011;12542;50.924;4.516;2024-02-21T14:24:25;8.63;;;3.28;;
24407;SDS011;12542;50.924;4.516;2024-02-21T14:26:52;7.93;;;3.22;;
24407;SDS011;12542;50.924;4.516;2024-02-21T14:29:18;13.45;;;4.72;;
24407;SDS011;12542;50.924;4.516;2024-02-21T14:31:47;7.28;;;2.83;;
24407;SDS011;12542;50.924;4.516;2024-02-21T14:34:12;10.75;;;3.13;;
24407;SDS011;12542;50.924;4.516;2024-02-21T14:36:38;6.47;;;2.67;;
24407;SDS011;12542;50.924;4.516;2024-02-21T14:39:05;10.57;;;3.55;;
24407;SDS011;12542;50.924;4.516;2024-02-21T14:41:31;9.45;;;3.22;;